sensor_id;sensor_type;location;lat;lon;timestamp;P1;durP1;ratioP1;P2;durP2;ratioP2
22622;SDS011;11478;51.094;7.030;2023-04-24T00:01:34;4.45;;;1.20;;
22622;SDS011;11478;51.094;7.030;2023-04-24T00:04:02;1.98;;;1.23;;
22622;SDS011;11478;51.094;7.030;2023-04-24T00:06:29;3.63;;;1.23;;
22622;SDS011;11478;51.094;7.030;2023-04-24T00:09:01;3.08;;;1.20;;
22622;SDS011;11478;51.094;7.030;2023-04-24T00:11:28;5.22;;;1.23;;
22622;SDS011;11478;51.094;7.030;2023-04-24T00:13:55;3.78;;;1.20;;
22622;SDS011;11478;51.094;7.030;2023-04-24T00:16:23;2.10;;;1.20;;
22622;SDS011;11478;51.094;7.030;2023-04-24T00:18:48;4.63;;;1.35;;
22622;SDS011;11478;51.094;7.030;2023-04-24T00:21:16;2.53;;;1.30;;
22622;SDS011;11478;51.094;7.030;2023-04-24T00:23:42;3.83;;;1.35;;
22622;SDS011;11478;51.094;7.030;2023-04-24T00:26:10;3.10;;;1.27;;
22622;SDS011;11478;51.094;7.030;2023-04-24T00:28:35;2.15;;;1.50;;
22622;SDS011;11478;51.094;7.030;2023-04-24T00:31:01;1.70;;;1.30;;
22622;SDS011;11478;51.094;7.030;2023-04-24T00:33:28;2.05;;;1.33;;
22622;SDS011;11478;51.094;7.030;2023-04-24T00:35:54;4.32;;;1.67;;
22622;SDS011;11478;51.094;7.030;2023-04-24T00:38:27;1.70;;;1.42;;
22622;SDS011;11478;51.094;7.030;2023-04-24T00:40:52;2.78;;;1.30;;
22622;SDS011;11478;51.094;7.030;2023-04-24T00:43:19;5.32;;;1.55;;
22622;SDS011;11478;51.094;7.030;2023-04-24T00:45:45;4.43;;;2.08;;
22622;SDS011;11478;51.094;7.030;2023-04-24T00:48:12;5.13;;;1.50;;
22622;SDS011;11478;51.094;7.030;2023-04-24T00:50:38;4.78;;;1.67;;
22622;SDS011;11478;51.094;7.030;2023-04-24T00:53:06;3.80;;;1.60;;
22622;SDS011;11478;51.094;7.030;2023-04-24T00:55:32;2.08;;;1.58;;
22622;SDS011;11478;51.094;7.030;2023-04-24T00:57:59;2.63;;;1.50;;
22622;SDS011;11478;51.094;7.030;2023-04-24T01:00:25;2.33;;;1.35;;
22622;SDS011;11478;51.094;7.030;2023-04-24T01:02:52;2.63;;;1.40;;
22622;SDS011;11478;51.094;7.030;2023-04-24T01:05:18;2.40;;;1.48;;
22622;SDS011;11478;51.094;7.030;2023-04-24T01:07:45;4.13;;;1.48;;
22622;SDS011;11478;51.094;7.030;2023-04-24T01:10:14;3.47;;;1.45;;
22622;SDS011;11478;51.094;7.030;2023-04-24T01:12:41;5.68;;;1.80;;
22622;SDS011;11478;51.094;7.030;2023-04-24T01:15:07;2.33;;;1.30;;
22622;SDS011;11478;51.094;7.030;2023-04-24T01:17:34;7.00;;;1.60;;
22622;SDS011;11478;51.094;7.030;2023-04-24T01:20:01;2.95;;;1.38;;
22622;SDS011;11478;51.094;7.030;2023-04-24T01:22:30;3.58;;;1.58;;
22622;SDS011;11478;51.094;7.030;2023-04-24T01:24:56;3.17;;;1.48;;
22622;SDS011;11478;51.094;7.030;2023-04-24T01:27:24;5.05;;;1.70;;
22622;SDS011;11478;51.094;7.030;2023-04-24T01:29:50;3.42;;;1.40;;
22622;SDS011;11478;51.094;7.030;2023-04-24T01:32:21;2.25;;;1.30;;
22622;SDS011;11478;51.094;7.030;2023-04-24T01:34:47;4.72;;;1.67;;
22622;SDS011;11478;51.094;7.030;2023-04-24T01:37:13;3.83;;;1.50;;
22622;SDS011;11478;51.094;7.030;2023-04-24T01:39:40;3.30;;;1.73;;
22622;SDS011;11478;51.094;7.030;2023-04-24T01:42:06;3.63;;;1.50;;
22622;SDS011;11478;51.094;7.030;2023-04-24T01:44:34;2.83;;;1.67;;
22622;SDS011;11478;51.094;7.030;2023-04-24T01:47:00;9.00;;;2.65;;
22622;SDS011;11478;51.094;7.030;2023-04-24T01:49:28;7.50;;;3.15;;
22622;SDS011;11478;51.094;7.030;2023-04-24T01:51:54;4.85;;;3.03;;
22622;SDS011;11478;51.094;7.030;2023-04-24T01:54:20;4.65;;;3.38;;
22622;SDS011;11478;51.094;7.030;2023-04-24T01:56:46;4.65;;;3.40;;
22622;SDS011;11478;51.094;7.030;2023-04-24T01:59:18;8.90;;;3.88;;
22622;SDS011;11478;51.094;7.030;2023-04-24T02:01:46;7.18;;;4.00;;
22622;SDS011;11478;51.094;7.030;2023-04-24T02:04:13;7.05;;;3.67;;
22622;SDS011;11478;51.094;7.030;2023-04-24T02:06:40;7.18;;;4.28;;
22622;SDS011;11478;51.094;7.030;2023-04-24T02:09:06;5.55;;;3.97;;
22622;SDS011;11478;51.094;7.030;2023-04-24T02:11:32;5.13;;;4.00;;
22622;SDS011;11478;51.094;7.030;2023-04-24T02:13:58;5.57;;;4.07;;
22622;SDS011;11478;51.094;7.030;2023-04-24T02:16:24;6.22;;;4.53;;
22622;SDS011;11478;51.094;7.030;2023-04-24T02:19:03;11.13;;;4.88;;
22622;SDS011;11478;51.094;7.030;2023-04-24T02:21:29;8.35;;;4.65;;
22622;SDS011;11478;51.094;7.030;2023-04-24T02:23:59;7.70;;;5.00;;
22622;SDS011;11478;51.094;7.030;2023-04-24T02:26:25;8.10;;;4.78;;
22622;SDS011;11478;51.094;7.030;2023-04-24T02:28:55;7.80;;;6.03;;
22622;SDS011;11478;51.094;7.030;2023-04-24T02:31:20;8.90;;;5.60;;
22622;SDS011;11478;51.094;7.030;2023-04-24T02:33:46;9.05;;;6.22;;
22622;SDS011;11478;51.094;7.030;2023-04-24T02:36:12;10.23;;;6.25;;
22622;SDS011;11478;51.094;7.030;2023-04-24T02:38:39;9.55;;;6.68;;
22622;SDS011;11478;51.094;7.030;2023-04-24T02:41:05;11.82;;;6.47;;
22622;SDS011;11478;51.094;7.030;2023-04-24T02:43:32;9.43;;;5.70;;
22622;SDS011;11478;51.094;7.030;2023-04-24T02:45:58;9.88;;;6.35;;
22622;SDS011;11478;51.094;7.030;2023-04-24T02:48:24;9.20;;;5.22;;
22622;SDS011;11478;51.094;7.030;2023-04-24T02:50:50;8.40;;;6.07;;
22622;SDS011;11478;51.094;7.030;2023-04-24T02:53:16;11.52;;;6.28;;
22622;SDS011;11478;51.094;7.030;2023-04-24T02:55:42;7.30;;;5.40;;
22622;SDS011;11478;51.094;7.030;2023-04-24T02:58:08;12.82;;;6.47;;
22622;SDS011;11478;51.094;7.030;2023-04-24T03:00:34;12.05;;;6.32;;
22622;SDS011;11478;51.094;7.030;2023-04-24T03:03:06;9.48;;;6.80;;
22622;SDS011;11478;51.094;7.030;2023-04-24T03:05:32;9.68;;;6.10;;
22622;SDS011;11478;51.094;7.030;2023-04-24T03:07:58;13.13;;;6.13;;
22622;SDS011;11478;51.094;7.030;2023-04-24T03:10:23;11.30;;;6.95;;
22622;SDS011;11478;51.094;7.030;2023-04-24T03:12:50;10.07;;;6.20;;
22622;SDS011;11478;51.094;7.030;2023-04-24T03:15:16;10.07;;;6.82;;
22622;SDS011;11478;51.094;7.030;2023-04-24T03:17:42;11.00;;;5.40;;
22622;SDS011;11478;51.094;7.030;2023-04-24T03:20:08;9.77;;;5.38;;
22622;SDS011;11478;51.094;7.030;2023-04-24T03:22:35;8.70;;;6.13;;
22622;SDS011;11478;51.094;7.030;2023-04-24T03:25:01;12.52;;;7.15;;
22622;SDS011;11478;51.094;7.030;2023-04-24T03:27:27;9.10;;;7.05;;
22622;SDS011;11478;51.094;7.030;2023-04-24T03:29:53;13.48;;;6.63;;
22622;SDS011;11478;51.094;7.030;2023-04-24T03:32:23;9.02;;;6.22;;
22622;SDS011;11478;51.094;7.030;2023-04-24T03:34:49;12.00;;;6.88;;
22622;SDS011;11478;51.094;7.030;2023-04-24T03:37:23;13.63;;;8.35;;
22622;SDS011;11478;51.094;7.030;2023-04-24T03:39:49;12.85;;;8.00;;
22622;SDS011;11478;51.094;7.030;2023-04-24T03:42:16;9.95;;;6.65;;
22622;SDS011;11478;51.094;7.030;2023-04-24T03:44:41;14.27;;;8.27;;
22622;SDS011;11478;51.094;7.030;2023-04-24T03:47:12;12.80;;;8.15;;
22622;SDS011;11478;51.094;7.030;2023-04-24T03:49:38;11.82;;;7.95;;
22622;SDS011;11478;51.094;7.030;2023-04-24T03:52:04;9.98;;;6.70;;
22622;SDS011;11478;51.094;7.030;2023-04-24T03:54:30;11.02;;;7.60;;
22622;SDS011;11478;51.094;7.030;2023-04-24T03:56:56;14.00;;;7.95;;
22622;SDS011;11478;51.094;7.030;2023-04-24T03:59:22;13.40;;;7.70;;
22622;SDS011;11478;51.094;7.030;2023-04-24T04:01:50;9.05;;;6.03;;
22622;SDS011;11478;51.094;7.030;2023-04-24T04:04:15;11.82;;;7.18;;
22622;SDS011;11478;51.094;7.030;2023-04-24T04:06:44;10.02;;;6.65;;
22622;SDS011;11478;51.094;7.030;2023-04-24T04:09:11;11.50;;;8.27;;
22622;SDS011;11478;51.094;7.030;2023-04-24T04:11:38;16.45;;;7.68;;
22622;SDS011;11478;51.094;7.030;2023-04-24T04:14:04;12.20;;;7.40;;
22622;SDS011;11478;51.094;7.030;2023-04-24T04:19:01;10.30;;;8.40;;
22622;SDS011;11478;51.094;7.030;2023-04-24T04:21:34;12.48;;;7.85;;
22622;SDS011;11478;51.094;7.030;2023-04-24T04:24:00;15.05;;;8.02;;
22622;SDS011;11478;51.094;7.030;2023-04-24T04:26:26;13.63;;;8.02;;
22622;SDS011;11478;51.094;7.030;2023-04-24T04:28:52;13.43;;;7.57;;
22622;SDS011;11478;51.094;7.030;2023-04-24T04:31:24;11.50;;;7.30;;
22622;SDS011;11478;51.094;7.030;2023-04-24T04:33:50;12.70;;;8.35;;
22622;SDS011;11478;51.094;7.030;2023-04-24T04:36:20;12.30;;;7.60;;
22622;SDS011;11478;51.094;7.030;2023-04-24T04:41:15;9.02;;;7.13;;
22622;SDS011;11478;51.094;7.030;2023-04-24T04:43:43;9.63;;;7.45;;
22622;SDS011;11478;51.094;7.030;2023-04-24T04:46:09;11.40;;;7.80;;
22622;SDS011;11478;51.094;7.030;2023-04-24T04:48:42;11.57;;;7.32;;
22622;SDS011;11478;51.094;7.030;2023-04-24T04:51:08;11.20;;;7.10;;
22622;SDS011;11478;51.094;7.030;2023-04-24T04:53:36;12.88;;;6.20;;
22622;SDS011;11478;51.094;7.030;2023-04-24T04:56:02;10.73;;;7.40;;
22622;SDS011;11478;51.094;7.030;2023-04-24T04:58:38;12.80;;;7.53;;
22622;SDS011;11478;51.094;7.030;2023-04-24T05:01:04;9.07;;;6.57;;
22622;SDS011;11478;51.094;7.030;2023-04-24T05:03:48;12.23;;;6.80;;
22622;SDS011;11478;51.094;7.030;2023-04-24T05:06:14;10.77;;;7.95;;
22622;SDS011;11478;51.094;7.030;2023-04-24T05:08:40;12.82;;;7.78;;
22622;SDS011;11478;51.094;7.030;2023-04-24T05:11:06;11.00;;;6.80;;
22622;SDS011;11478;51.094;7.030;2023-04-24T05:16:01;9.60;;;6.88;;
22622;SDS011;11478;51.094;7.030;2023-04-24T05:20:57;11.02;;;6.82;;
22622;SDS011;11478;51.094;7.030;2023-04-24T05:23:26;10.30;;;5.60;;
22622;SDS011;11478;51.094;7.030;2023-04-24T05:25:51;8.98;;;5.53;;
22622;SDS011;11478;51.094;7.030;2023-04-24T05:28:32;9.45;;;6.50;;
22622;SDS011;11478;51.094;7.030;2023-04-24T05:30:58;8.65;;;5.30;;
22622;SDS011;11478;51.094;7.030;2023-04-24T05:33:25;9.57;;;5.90;;
22622;SDS011;11478;51.094;7.030;2023-04-24T05:35:51;10.00;;;6.65;;
22622;SDS011;11478;51.094;7.030;2023-04-24T05:40:46;10.02;;;6.38;;
22622;SDS011;11478;51.094;7.030;2023-04-24T05:43:20;9.10;;;6.45;;
22622;SDS011;11478;51.094;7.030;2023-04-24T05:45:45;9.68;;;6.72;;
22622;SDS011;11478;51.094;7.030;2023-04-24T05:48:13;9.10;;;6.55;;
22622;SDS011;11478;51.094;7.030;2023-04-24T05:50:39;9.85;;;6.43;;
22622;SDS011;11478;51.094;7.030;2023-04-24T05:53:05;12.10;;;7.10;;
22622;SDS011;11478;51.094;7.030;2023-04-24T05:55:32;15.90;;;7.53;;
22622;SDS011;11478;51.094;7.030;2023-04-24T05:58:01;11.20;;;7.05;;
22622;SDS011;11478;51.094;7.030;2023-04-24T06:00:27;11.52;;;7.25;;
22622;SDS011;11478;51.094;7.030;2023-04-24T06:02:55;12.82;;;8.70;;
22622;SDS011;11478;51.094;7.030;2023-04-24T06:05:21;11.48;;;8.00;;
22622;SDS011;11478;51.094;7.030;2023-04-24T06:07:47;12.55;;;8.32;;
22622;SDS011;11478;51.094;7.030;2023-04-24T06:10:13;10.63;;;8.13;;
22622;SDS011;11478;51.094;7.030;2023-04-24T06:12:39;12.90;;;9.13;;
22622;SDS011;11478;51.094;7.030;2023-04-24T06:15:05;11.00;;;7.68;;
22622;SDS011;11478;51.094;7.030;2023-04-24T06:17:32;10.48;;;7.85;;
22622;SDS011;11478;51.094;7.030;2023-04-24T06:19:58;13.48;;;8.02;;
22622;SDS011;11478;51.094;7.030;2023-04-24T06:22:30;10.98;;;6.63;;
22622;SDS011;11478;51.094;7.030;2023-04-24T06:24:56;11.02;;;7.38;;
22622;SDS011;11478;51.094;7.030;2023-04-24T06:27:23;9.35;;;6.13;;
22622;SDS011;11478;51.094;7.030;2023-04-24T06:29:48;8.35;;;5.53;;
22622;SDS011;11478;51.094;7.030;2023-04-24T06:32:24;6.30;;;4.65;;
22622;SDS011;11478;51.094;7.030;2023-04-24T06:34:53;7.57;;;5.47;;
22622;SDS011;11478;51.094;7.030;2023-04-24T06:39:54;9.98;;;4.82;;
22622;SDS011;11478;51.094;7.030;2023-04-24T06:42:32;5.45;;;4.25;;
22622;SDS011;11478;51.094;7.030;2023-04-24T06:44:59;7.40;;;4.45;;
22622;SDS011;11478;51.094;7.030;2023-04-24T06:47:28;6.13;;;4.05;;
22622;SDS011;11478;51.094;7.030;2023-04-24T06:50:08;6.03;;;4.72;;
22622;SDS011;11478;51.094;7.030;2023-04-24T06:52:34;8.95;;;5.13;;
22622;SDS011;11478;51.094;7.030;2023-04-24T06:55:02;6.25;;;4.18;;
22622;SDS011;11478;51.094;7.030;2023-04-24T06:57:29;5.00;;;3.63;;
22622;SDS011;11478;51.094;7.030;2023-04-24T07:00:06;8.05;;;3.50;;
22622;SDS011;11478;51.094;7.030;2023-04-24T07:02:34;5.47;;;3.35;;
22622;SDS011;11478;51.094;7.030;2023-04-24T07:05:00;6.55;;;3.90;;
22622;SDS011;11478;51.094;7.030;2023-04-24T07:07:34;4.55;;;3.30;;
22622;SDS011;11478;51.094;7.030;2023-04-24T07:10:03;5.80;;;3.03;;
22622;SDS011;11478;51.094;7.030;2023-04-24T07:12:31;8.23;;;3.47;;
22622;SDS011;11478;51.094;7.030;2023-04-24T07:14:57;4.68;;;2.83;;
22622;SDS011;11478;51.094;7.030;2023-04-24T07:17:24;5.35;;;2.95;;
22622;SDS011;11478;51.094;7.030;2023-04-24T07:19:50;6.20;;;2.83;;
22622;SDS011;11478;51.094;7.030;2023-04-24T07:22:16;4.53;;;3.20;;
22622;SDS011;11478;51.094;7.030;2023-04-24T07:24:45;3.92;;;2.83;;
22622;SDS011;11478;51.094;7.030;2023-04-24T07:27:16;6.20;;;2.80;;
22622;SDS011;11478;51.094;7.030;2023-04-24T07:29:42;3.20;;;2.17;;
22622;SDS011;11478;51.094;7.030;2023-04-24T07:32:08;4.82;;;2.45;;
22622;SDS011;11478;51.094;7.030;2023-04-24T07:34:34;4.95;;;3.00;;
22622;SDS011;11478;51.094;7.030;2023-04-24T07:37:14;3.78;;;2.70;;
22622;SDS011;11478;51.094;7.030;2023-04-24T07:39:40;3.78;;;2.90;;
22622;SDS011;11478;51.094;7.030;2023-04-24T07:42:07;7.63;;;3.53;;
22622;SDS011;11478;51.094;7.030;2023-04-24T07:44:33;6.07;;;3.58;;
22622;SDS011;11478;51.094;7.030;2023-04-24T07:47:02;3.10;;;2.75;;
22622;SDS011;11478;51.094;7.030;2023-04-24T07:49:37;4.32;;;2.47;;
22622;SDS011;11478;51.094;7.030;2023-04-24T07:52:14;5.72;;;2.60;;
22622;SDS011;11478;51.094;7.030;2023-04-24T07:54:47;4.13;;;2.13;;
22622;SDS011;11478;51.094;7.030;2023-04-24T07:57:13;3.58;;;2.17;;
22622;SDS011;11478;51.094;7.030;2023-04-24T07:59:42;3.20;;;2.60;;
22622;SDS011;11478;51.094;7.030;2023-04-24T08:02:08;3.20;;;2.70;;
22622;SDS011;11478;51.094;7.030;2023-04-24T08:04:35;5.50;;;2.80;;
22622;SDS011;11478;51.094;7.030;2023-04-24T08:07:00;2.97;;;2.42;;
22622;SDS011;11478;51.094;7.030;2023-04-24T08:12:14;5.00;;;3.30;;
22622;SDS011;11478;51.094;7.030;2023-04-24T08:14:41;3.47;;;2.10;;
22622;SDS011;11478;51.094;7.030;2023-04-24T08:17:07;3.20;;;1.13;;
22622;SDS011;11478;51.094;7.030;2023-04-24T08:19:35;3.47;;;1.30;;
22622;SDS011;11478;51.094;7.030;2023-04-24T08:22:01;5.22;;;1.45;;
22622;SDS011;11478;51.094;7.030;2023-04-24T08:24:38;1.83;;;1.33;;
22622;SDS011;11478;51.094;7.030;2023-04-24T08:27:06;5.07;;;1.67;;
22622;SDS011;11478;51.094;7.030;2023-04-24T08:29:38;4.60;;;2.08;;
22622;SDS011;11478;51.094;7.030;2023-04-24T08:32:04;4.35;;;2.20;;
22622;SDS011;11478;51.094;7.030;2023-04-24T08:34:32;6.25;;;2.95;;
22622;SDS011;11478;51.094;7.030;2023-04-24T08:36:58;10.07;;;3.35;;
22622;SDS011;11478;51.094;7.030;2023-04-24T08:39:34;7.85;;;3.90;;
22622;SDS011;11478;51.094;7.030;2023-04-24T08:42:03;7.10;;;4.20;;
22622;SDS011;11478;51.094;7.030;2023-04-24T08:44:33;10.90;;;3.70;;
22622;SDS011;11478;51.094;7.030;2023-04-24T08:47:03;5.80;;;4.07;;
22622;SDS011;11478;51.094;7.030;2023-04-24T08:49:30;9.70;;;4.57;;
22622;SDS011;11478;51.094;7.030;2023-04-24T08:51:56;8.23;;;4.47;;
22622;SDS011;11478;51.094;7.030;2023-04-24T08:54:24;6.13;;;4.47;;
22622;SDS011;11478;51.094;7.030;2023-04-24T08:56:50;6.70;;;4.65;;
22622;SDS011;11478;51.094;7.030;2023-04-24T08:59:19;8.32;;;5.65;;
22622;SDS011;11478;51.094;7.030;2023-04-24T09:01:46;6.47;;;4.93;;
22622;SDS011;11478;51.094;7.030;2023-04-24T09:04:14;10.07;;;6.18;;
22622;SDS011;11478;51.094;7.030;2023-04-24T09:06:42;6.00;;;4.97;;
22622;SDS011;11478;51.094;7.030;2023-04-24T09:09:14;7.38;;;5.50;;
22622;SDS011;11478;51.094;7.030;2023-04-24T09:15:11;12.80;;;7.88;;
22622;SDS011;11478;51.094;7.030;2023-04-24T09:17:46;10.15;;;6.57;;
22622;SDS011;11478;51.094;7.030;2023-04-24T09:20:12;30.17;;;15.82;;
22622;SDS011;11478;51.094;7.030;2023-04-24T09:22:42;10.23;;;6.40;;
22622;SDS011;11478;51.094;7.030;2023-04-24T09:25:10;30.42;;;14.35;;
22622;SDS011;11478;51.094;7.030;2023-04-24T09:27:41;21.85;;;10.77;;
22622;SDS011;11478;51.094;7.030;2023-04-24T09:30:11;13.23;;;8.50;;
22622;SDS011;11478;51.094;7.030;2023-04-24T09:32:50;17.95;;;8.23;;
22622;SDS011;11478;51.094;7.030;2023-04-24T09:35:35;17.70;;;9.95;;
22622;SDS011;11478;51.094;7.030;2023-04-24T09:38:01;28.38;;;15.55;;
22622;SDS011;11478;51.094;7.030;2023-04-24T09:40:37;14.55;;;8.05;;
22622;SDS011;11478;51.094;7.030;2023-04-24T09:43:10;11.65;;;7.60;;
22622;SDS011;11478;51.094;7.030;2023-04-24T09:45:46;16.02;;;8.38;;
22622;SDS011;11478;51.094;7.030;2023-04-24T09:48:30;14.98;;;8.45;;
22622;SDS011;11478;51.094;7.030;2023-04-24T09:51:10;14.48;;;7.60;;
22622;SDS011;11478;51.094;7.030;2023-04-24T09:53:39;8.35;;;6.50;;
22622;SDS011;11478;51.094;7.030;2023-04-24T09:56:08;15.05;;;8.68;;
22622;SDS011;11478;51.094;7.030;2023-04-24T10:01:55;15.23;;;7.82;;
22622;SDS011;11478;51.094;7.030;2023-04-24T10:04:41;14.02;;;8.80;;
22622;SDS011;11478;51.094;7.030;2023-04-24T10:07:28;18.40;;;10.18;;
22622;SDS011;11478;51.094;7.030;2023-04-24T10:10:21;16.35;;;10.88;;
22622;SDS011;11478;51.094;7.030;2023-04-24T10:12:55;18.65;;;11.15;;
22622;SDS011;11478;51.094;7.030;2023-04-24T10:15:21;20.17;;;11.70;;
22622;SDS011;11478;51.094;7.030;2023-04-24T10:24:42;21.58;;;13.38;;
22622;SDS011;11478;51.094;7.030;2023-04-24T10:28:03;24.00;;;13.98;;
22622;SDS011;11478;51.094;7.030;2023-04-24T10:30:35;22.10;;;13.68;;
22622;SDS011;11478;51.094;7.030;2023-04-24T10:33:11;21.40;;;13.00;;
22622;SDS011;11478;51.094;7.030;2023-04-24T10:35:53;26.63;;;14.55;;
22622;SDS011;11478;51.094;7.030;2023-04-24T10:38:24;25.90;;;13.73;;
22622;SDS011;11478;51.094;7.030;2023-04-24T10:41:25;19.45;;;11.15;;
22622;SDS011;11478;51.094;7.030;2023-04-24T10:44:09;18.80;;;10.43;;
22622;SDS011;11478;51.094;7.030;2023-04-24T10:49:40;19.55;;;10.55;;
22622;SDS011;11478;51.094;7.030;2023-04-24T10:52:08;21.10;;;10.57;;
22622;SDS011;11478;51.094;7.030;2023-04-24T10:54:44;16.60;;;9.27;;
22622;SDS011;11478;51.094;7.030;2023-04-24T10:59:45;17.15;;;8.73;;
22622;SDS011;11478;51.094;7.030;2023-04-24T11:02:15;17.83;;;9.23;;
22622;SDS011;11478;51.094;7.030;2023-04-24T11:05:16;21.10;;;9.43;;
22622;SDS011;11478;51.094;7.030;2023-04-24T11:10:56;15.82;;;8.68;;
22622;SDS011;11478;51.094;7.030;2023-04-24T11:13:31;23.90;;;9.73;;
22622;SDS011;11478;51.094;7.030;2023-04-24T11:21:43;17.40;;;7.03;;
22622;SDS011;11478;51.094;7.030;2023-04-24T11:27:19;14.00;;;7.53;;
22622;SDS011;11478;51.094;7.030;2023-04-24T11:37:54;17.77;;;7.40;;
22622;SDS011;11478;51.094;7.030;2023-04-24T11:40:20;16.17;;;6.32;;
22622;SDS011;11478;51.094;7.030;2023-04-24T11:42:49;14.18;;;5.63;;
22622;SDS011;11478;51.094;7.030;2023-04-24T11:45:18;13.00;;;5.93;;
22622;SDS011;11478;51.094;7.030;2023-04-24T11:47:47;16.35;;;6.10;;
22622;SDS011;11478;51.094;7.030;2023-04-24T11:50:14;13.75;;;4.95;;
22622;SDS011;11478;51.094;7.030;2023-04-24T11:52:44;14.63;;;4.97;;
22622;SDS011;11478;51.094;7.030;2023-04-24T11:57:45;14.68;;;5.07;;
22622;SDS011;11478;51.094;7.030;2023-04-24T12:00:16;12.80;;;5.18;;
22622;SDS011;11478;51.094;7.030;2023-04-24T12:02:46;23.37;;;5.23;;
22622;SDS011;11478;51.094;7.030;2023-04-24T12:07:49;15.75;;;5.32;;
22622;SDS011;11478;51.094;7.030;2023-04-24T12:10:19;17.50;;;5.85;;
22622;SDS011;11478;51.094;7.030;2023-04-24T12:12:50;15.55;;;5.80;;
22622;SDS011;11478;51.094;7.030;2023-04-24T12:15:20;12.13;;;5.13;;
22622;SDS011;11478;51.094;7.030;2023-04-24T12:17:47;20.38;;;5.47;;
22622;SDS011;11478;51.094;7.030;2023-04-24T12:20:22;15.70;;;4.93;;
22622;SDS011;11478;51.094;7.030;2023-04-24T12:22:58;12.07;;;5.20;;
22622;SDS011;11478;51.094;7.030;2023-04-24T12:25:34;15.68;;;5.35;;
22622;SDS011;11478;51.094;7.030;2023-04-24T12:30:32;10.30;;;4.18;;
22622;SDS011;11478;51.094;7.030;2023-04-24T12:33:01;11.13;;;4.20;;
22622;SDS011;11478;51.094;7.030;2023-04-24T12:35:28;11.70;;;3.78;;
22622;SDS011;11478;51.094;7.030;2023-04-24T12:38:04;10.93;;;3.83;;
22622;SDS011;11478;51.094;7.030;2023-04-24T12:40:35;9.23;;;3.88;;
22622;SDS011;11478;51.094;7.030;2023-04-24T12:43:17;11.55;;;4.30;;
22622;SDS011;11478;51.094;7.030;2023-04-24T12:45:45;10.23;;;3.55;;
22622;SDS011;11478;51.094;7.030;2023-04-24T12:51:09;13.38;;;3.80;;
22622;SDS011;11478;51.094;7.030;2023-04-24T12:53:42;10.40;;;3.03;;
22622;SDS011;11478;51.094;7.030;2023-04-24T12:56:08;9.95;;;3.22;;
22622;SDS011;11478;51.094;7.030;2023-04-24T12:58:36;10.52;;;3.45;;
22622;SDS011;11478;51.094;7.030;2023-04-24T13:01:02;10.90;;;3.78;;
22622;SDS011;11478;51.094;7.030;2023-04-24T13:03:43;9.88;;;3.33;;
22622;SDS011;11478;51.094;7.030;2023-04-24T13:06:12;9.25;;;3.47;;
22622;SDS011;11478;51.094;7.030;2023-04-24T13:08:43;8.93;;;3.20;;
22622;SDS011;11478;51.094;7.030;2023-04-24T13:11:12;9.27;;;3.35;;
22622;SDS011;11478;51.094;7.030;2023-04-24T13:13:46;7.20;;;2.72;;
22622;SDS011;11478;51.094;7.030;2023-04-24T13:16:12;10.82;;;3.53;;
22622;SDS011;11478;51.094;7.030;2023-04-24T13:18:47;9.45;;;3.10;;
22622;SDS011;11478;51.094;7.030;2023-04-24T13:21:12;9.07;;;2.45;;
22622;SDS011;11478;51.094;7.030;2023-04-24T13:23:42;7.93;;;2.47;;
22622;SDS011;11478;51.094;7.030;2023-04-24T13:26:20;9.95;;;2.90;;
22622;SDS011;11478;51.094;7.030;2023-04-24T13:28:53;7.82;;;2.50;;
22622;SDS011;11478;51.094;7.030;2023-04-24T13:31:19;7.25;;;2.63;;
22622;SDS011;11478;51.094;7.030;2023-04-24T13:33:45;5.55;;;2.40;;
22622;SDS011;11478;51.094;7.030;2023-04-24T13:36:11;7.20;;;2.50;;
22622;SDS011;11478;51.094;7.030;2023-04-24T13:38:46;7.28;;;2.47;;
22622;SDS011;11478;51.094;7.030;2023-04-24T13:44:01;6.80;;;3.20;;
22622;SDS011;11478;51.094;7.030;2023-04-24T13:46:29;9.00;;;2.53;;
22622;SDS011;11478;51.094;7.030;2023-04-24T13:48:58;6.18;;;2.60;;
22622;SDS011;11478;51.094;7.030;2023-04-24T13:51:26;8.93;;;2.55;;
22622;SDS011;11478;51.094;7.030;2023-04-24T13:53:52;8.32;;;2.92;;
22622;SDS011;11478;51.094;7.030;2023-04-24T13:56:27;11.82;;;2.95;;
22622;SDS011;11478;51.094;7.030;2023-04-24T13:58:56;11.05;;;2.97;;
22622;SDS011;11478;51.094;7.030;2023-04-24T14:01:23;8.77;;;2.85;;
22622;SDS011;11478;51.094;7.030;2023-04-24T14:03:53;7.22;;;2.60;;
22622;SDS011;11478;51.094;7.030;2023-04-24T14:06:21;6.70;;;3.17;;
22622;SDS011;11478;51.094;7.030;2023-04-24T14:08:48;7.70;;;3.20;;
22622;SDS011;11478;51.094;7.030;2023-04-24T14:11:15;6.60;;;2.80;;
22622;SDS011;11478;51.094;7.030;2023-04-24T14:13:44;5.88;;;2.58;;
22622;SDS011;11478;51.094;7.030;2023-04-24T14:16:14;10.25;;;3.03;;
22622;SDS011;11478;51.094;7.030;2023-04-24T14:18:43;6.72;;;3.30;;
22622;SDS011;11478;51.094;7.030;2023-04-24T14:21:21;9.52;;;3.83;;
22622;SDS011;11478;51.094;7.030;2023-04-24T14:23:50;8.70;;;2.85;;
22622;SDS011;11478;51.094;7.030;2023-04-24T14:26:30;9.43;;;3.15;;
22622;SDS011;11478;51.094;7.030;2023-04-24T14:28:58;5.90;;;3.20;;
22622;SDS011;11478;51.094;7.030;2023-04-24T14:31:24;11.13;;;2.90;;
22622;SDS011;11478;51.094;7.030;2023-04-24T14:33:53;10.27;;;2.95;;
22622;SDS011;11478;51.094;7.030;2023-04-24T14:36:30;8.35;;;2.70;;
22622;SDS011;11478;51.094;7.030;2023-04-24T14:38:59;8.48;;;2.58;;
22622;SDS011;11478;51.094;7.030;2023-04-24T14:44:17;5.93;;;2.55;;
22622;SDS011;11478;51.094;7.030;2023-04-24T14:49:17;11.52;;;2.30;;
22622;SDS011;11478;51.094;7.030;2023-04-24T14:51:43;7.00;;;2.72;;
22622;SDS011;11478;51.094;7.030;2023-04-24T14:54:15;6.55;;;2.45;;
22622;SDS011;11478;51.094;7.030;2023-04-24T14:56:51;10.68;;;4.72;;
22622;SDS011;11478;51.094;7.030;2023-04-24T14:59:17;9.40;;;2.45;;
22622;SDS011;11478;51.094;7.030;2023-04-24T15:01:46;6.63;;;2.60;;
22622;SDS011;11478;51.094;7.030;2023-04-24T15:04:14;10.18;;;2.53;;
22622;SDS011;11478;51.094;7.030;2023-04-24T15:06:52;5.72;;;2.08;;
22622;SDS011;11478;51.094;7.030;2023-04-24T15:09:19;6.22;;;2.20;;
22622;SDS011;11478;51.094;7.030;2023-04-24T15:11:51;7.45;;;2.58;;
22622;SDS011;11478;51.094;7.030;2023-04-24T15:14:17;8.15;;;2.40;;
22622;SDS011;11478;51.094;7.030;2023-04-24T15:16:46;8.88;;;4.20;;
22622;SDS011;11478;51.094;7.030;2023-04-24T15:19:16;7.63;;;2.47;;
22622;SDS011;11478;51.094;7.030;2023-04-24T15:21:46;5.03;;;2.20;;
22622;SDS011;11478;51.094;7.030;2023-04-24T15:27:41;4.77;;;1.93;;
22622;SDS011;11478;51.094;7.030;2023-04-24T15:30:10;6.57;;;2.10;;
22622;SDS011;11478;51.094;7.030;2023-04-24T15:35:57;6.07;;;2.33;;
22622;SDS011;11478;51.094;7.030;2023-04-24T15:38:34;4.60;;;1.70;;
22622;SDS011;11478;51.094;7.030;2023-04-24T15:41:03;5.47;;;2.10;;
22622;SDS011;11478;51.094;7.030;2023-04-24T15:43:29;5.78;;;2.05;;
22622;SDS011;11478;51.094;7.030;2023-04-24T15:46:03;6.50;;;2.00;;
22622;SDS011;11478;51.094;7.030;2023-04-24T15:48:29;6.88;;;2.28;;
22622;SDS011;11478;51.094;7.030;2023-04-24T15:51:05;5.47;;;1.95;;
22622;SDS011;11478;51.094;7.030;2023-04-24T15:53:31;5.38;;;2.05;;
22622;SDS011;11478;51.094;7.030;2023-04-24T15:56:05;5.88;;;2.40;;
22622;SDS011;11478;51.094;7.030;2023-04-24T15:58:34;6.53;;;1.90;;
22622;SDS011;11478;51.094;7.030;2023-04-24T16:01:02;5.22;;;2.20;;
22622;SDS011;11478;51.094;7.030;2023-04-24T16:03:31;4.85;;;2.03;;
22622;SDS011;11478;51.094;7.030;2023-04-24T16:05:58;5.10;;;2.03;;
22622;SDS011;11478;51.094;7.030;2023-04-24T16:08:24;5.00;;;2.00;;
22622;SDS011;11478;51.094;7.030;2023-04-24T16:10:51;3.50;;;1.90;;
22622;SDS011;11478;51.094;7.030;2023-04-24T16:13:17;6.13;;;2.00;;
22622;SDS011;11478;51.094;7.030;2023-04-24T16:15:46;5.63;;;2.17;;